createdAt,value
2022-08-03T00:01:52.890Z,20.08
2022-08-03T00:04:19.623Z,20.14
2022-08-03T00:06:46.249Z,20.24
2022-08-03T00:09:12.897Z,20.33
2022-08-03T00:11:39.786Z,20.41
2022-08-03T00:14:07.399Z,20.13
2022-08-03T00:16:34.597Z,20.00
2022-08-03T00:19:03.376Z,19.98
2022-08-03T00:21:30.213Z,19.93
2022-08-03T00:23:57.048Z,19.76
2022-08-03T00:26:23.781Z,19.57
2022-08-03T00:28:50.968Z,19.44
2022-08-03T00:31:23.047Z,19.56
2022-08-03T00:34:04.927Z,19.69
2022-08-03T00:36:32.883Z,19.68
2022-08-03T00:38:59.558Z,19.52
2022-08-03T00:41:26.285Z,19.41
2022-08-03T00:43:53.053Z,19.25
2022-08-03T00:46:22.191Z,19.19
2022-08-03T00:48:51.018Z,19.21
2022-08-03T00:51:20.779Z,19.30
2022-08-03T00:53:48.174Z,19.33
2022-08-03T00:56:16.590Z,19.35
2022-08-03T00:58:47.144Z,19.59
2022-08-03T01:01:14.977Z,19.73
2022-08-03T01:03:42.161Z,19.76
2022-08-03T01:06:25.682Z,19.81
2022-08-03T01:09:30.797Z,19.83
2022-08-03T01:12:29.699Z,19.73
2022-08-03T01:15:04.903Z,19.57
2022-08-03T01:17:49.320Z,19.61
2022-08-03T01:20:20.799Z,19.61
2022-08-03T01:22:53.202Z,19.75
2022-08-03T01:25:40.339Z,19.62
2022-08-03T01:28:58.327Z,19.23
2022-08-03T01:32:58.564Z,19.22
2022-08-03T01:34:59.681Z,19.38
2022-08-03T01:37:38.827Z,19.44
2022-08-03T01:40:09.252Z,19.06
2022-08-03T01:42:38.572Z,18.85
2022-08-03T01:45:09.106Z,18.80
2022-08-03T01:47:36.983Z,18.61
2022-08-03T01:50:07.384Z,18.66
2022-08-03T01:52:37.520Z,18.82
2022-08-03T01:55:07.319Z,18.68
2022-08-03T01:58:06.295Z,18.88
2022-08-03T02:00:26.192Z,18.71
2022-08-03T02:02:56.052Z,18.76
2022-08-03T02:05:24.703Z,18.82
2022-08-03T02:07:52.888Z,18.93
2022-08-03T02:10:34.689Z,19.07
2022-08-03T02:13:07.147Z,19.08
2022-08-03T02:15:37.117Z,18.88
2022-08-03T02:18:08.762Z,18.72
2022-08-03T02:20:38.955Z,18.74
2022-08-03T02:23:07.175Z,18.89
2022-08-03T02:25:44.530Z,18.91
2022-08-03T02:28:18.240Z,18.97
2022-08-03T02:30:51.893Z,18.97
2022-08-03T02:33:34.243Z,18.71
2022-08-03T02:36:03.028Z,18.33
2022-08-03T02:38:36.642Z,18.08
2022-08-03T02:41:12.380Z,17.82
2022-08-03T02:44:05.748Z,17.78
2022-08-03T02:46:38.569Z,17.57
2022-08-03T02:49:40.652Z,17.60
2022-08-03T02:51:56.766Z,17.75
2022-08-03T02:54:26.847Z,17.94
2022-08-03T02:56:57.780Z,17.91
2022-08-03T02:59:26.304Z,18.04
2022-08-03T03:01:55.047Z,18.14
2022-08-03T03:04:22.753Z,18.17
2022-08-03T03:06:55.701Z,18.28
2022-08-03T03:09:22.758Z,18.23
2022-08-03T03:11:51.465Z,18.27
2022-08-03T03:14:19.450Z,17.88
2022-08-03T03:17:02.653Z,17.94
2022-08-03T03:19:32.873Z,18.00
2022-08-03T03:22:06.812Z,18.01
2022-08-03T03:24:36.397Z,18.10
2022-08-03T03:27:05.164Z,18.13
2022-08-03T03:29:39.240Z,18.22
2022-08-03T03:32:09.168Z,18.22
2022-08-03T03:34:37.521Z,18.29
2022-08-03T03:37:05.392Z,18.24
2022-08-03T03:39:32.699Z,18.21
2022-08-03T03:42:01.095Z,18.25
2022-08-03T03:44:31.532Z,18.13
2022-08-03T03:46:59.088Z,18.14
2022-08-03T03:49:27.007Z,18.21
2022-08-03T03:51:55.420Z,18.07
2022-08-03T03:54:22.434Z,18.18
2022-08-03T03:56:52.462Z,18.11
2022-08-03T03:59:19.192Z,18.19
2022-08-03T04:01:46.021Z,18.16
2022-08-03T04:04:31.277Z,18.12
2022-08-03T04:07:16.699Z,18.22
2022-08-03T04:10:14.194Z,18.06
2022-08-03T04:12:50.615Z,18.08
2022-08-03T04:15:23.081Z,18.13
2022-08-03T04:17:56.591Z,18.12
2022-08-03T04:20:29.709Z,18.11
2022-08-03T04:23:00.369Z,18.12
2022-08-03T04:25:32.777Z,18.11
2022-08-03T04:28:29.275Z,18.10
2022-08-03T04:30:50.918Z,18.01
2022-08-03T04:33:21.620Z,17.70
2022-08-03T04:36:01.087Z,17.75
2022-08-03T04:38:33.050Z,17.90
2022-08-03T04:41:01.505Z,17.91
2022-08-03T04:43:34.543Z,17.98
2022-08-03T04:46:02.968Z,17.97
2022-08-03T04:48:30.183Z,17.96
2022-08-03T04:50:57.626Z,17.85
2022-08-03T04:53:24.383Z,17.92
2022-08-03T04:55:51.015Z,17.95
2022-08-03T04:58:17.654Z,17.96
2022-08-03T05:00:45.725Z,17.92
2022-08-03T05:03:19.461Z,18.00
2022-08-03T05:06:01.872Z,17.99
2022-08-03T05:08:45.984Z,18.01
2022-08-03T05:11:13.819Z,17.97
2022-08-03T05:13:40.589Z,18.03
2022-08-03T05:16:07.204Z,18.06
2022-08-03T05:18:33.957Z,18.08
2022-08-03T05:21:00.626Z,18.11
2022-08-03T05:23:27.543Z,18.26
2022-08-03T05:25:54.197Z,18.25
2022-08-03T05:28:20.830Z,18.35
2022-08-03T05:30:47.570Z,18.41
2022-08-03T05:33:14.888Z,18.56
2022-08-03T05:35:57.846Z,18.58
2022-08-03T05:38:34.768Z,18.73
2022-08-03T05:41:22.857Z,18.83
2022-08-03T05:43:55.147Z,18.94
2022-08-03T05:46:24.986Z,19.11
2022-08-03T05:48:51.858Z,19.20
2022-08-03T05:51:19.075Z,19.36
2022-08-03T05:53:46.209Z,19.51
2022-08-03T05:56:15.985Z,19.66
2022-08-03T05:58:46.386Z,19.74
2022-08-03T06:01:13.544Z,19.92
2022-08-03T06:03:40.762Z,19.97
2022-08-03T06:06:07.471Z,19.95
2022-08-03T06:08:35.226Z,20.16
2022-08-03T06:11:02.136Z,20.38
2022-08-03T06:13:29.392Z,20.56
2022-08-03T06:15:56.106Z,20.70
2022-08-03T06:18:24.518Z,20.74
2022-08-03T06:20:52.458Z,20.88
2022-08-03T06:23:19.597Z,20.90
2022-08-03T06:25:47.698Z,21.05
2022-08-03T06:31:02.297Z,21.41
2022-08-03T06:34:30.988Z,21.49
2022-08-03T06:36:16.451Z,21.73
2022-08-03T06:38:43.121Z,21.83
2022-08-03T06:41:09.757Z,22.04
2022-08-03T06:43:38.017Z,22.00
2022-08-03T06:46:26.779Z,22.15
2022-08-03T06:48:53.496Z,22.28
2022-08-03T06:51:20.240Z,22.45
2022-08-03T06:53:46.866Z,22.49
2022-08-03T06:56:13.577Z,22.56
2022-08-03T06:58:40.407Z,22.78
2022-08-03T07:01:07.084Z,22.89
2022-08-03T07:03:33.848Z,23.15
2022-08-03T07:06:04.159Z,23.29
2022-08-03T07:08:33.876Z,23.38
2022-08-03T07:11:01.959Z,23.40
2022-08-03T07:13:28.925Z,23.60
2022-08-03T07:15:56.596Z,23.70
2022-08-03T07:18:29.710Z,23.82
2022-08-03T07:20:58.094Z,23.82
2022-08-03T07:23:27.212Z,23.98
2022-08-03T07:25:53.900Z,24.10
2022-08-03T07:28:23.216Z,24.21
2022-08-03T07:30:50.094Z,24.31
2022-08-03T07:33:16.875Z,24.37
2022-08-03T07:35:45.941Z,24.51
2022-08-03T07:38:12.892Z,24.50
2022-08-03T07:40:44.426Z,24.73
2022-08-03T07:43:12.962Z,24.93
2022-08-03T07:45:42.008Z,25.00
2022-08-03T07:48:12.092Z,24.97
2022-08-03T07:50:39.682Z,25.11
2022-08-03T07:53:08.786Z,25.31
2022-08-03T07:55:42.716Z,25.30
2022-08-03T07:58:19.185Z,25.51
2022-08-03T08:00:53.465Z,25.63
2022-08-03T08:03:22.036Z,25.72
2022-08-03T08:05:50.128Z,25.77
2022-08-03T08:08:17.356Z,25.87
2022-08-03T08:10:57.958Z,26.04
2022-08-03T08:13:28.221Z,26.17
2022-08-03T08:15:55.078Z,26.25
2022-08-03T08:18:21.826Z,26.35
2022-08-03T08:20:48.517Z,26.55
2022-08-03T08:23:42.670Z,26.61
2022-08-03T08:26:02.232Z,26.77
2022-08-03T08:28:32.523Z,26.85
2022-08-03T08:31:07.906Z,27.01
2022-08-03T08:34:03.279Z,27.10
2022-08-03T08:36:26.161Z,27.20
2022-08-03T08:38:57.930Z,27.43
2022-08-03T08:41:32.327Z,27.43
2022-08-03T08:44:00.200Z,27.49
2022-08-03T08:46:31.188Z,27.50
2022-08-03T08:49:00.163Z,27.58
2022-08-03T08:51:50.938Z,27.76
2022-08-03T08:54:26.406Z,27.88
2022-08-03T08:56:57.107Z,27.97
2022-08-03T08:59:48.786Z,28.10
2022-08-03T09:02:15.259Z,28.08
2022-08-03T09:04:42.494Z,28.26
2022-08-03T09:07:20.115Z,28.43
2022-08-03T09:10:01.315Z,28.53
2022-08-03T09:12:47.776Z,28.75
2022-08-03T09:15:33.104Z,28.94
2022-08-03T09:18:02.576Z,28.96
2022-08-03T09:20:34.340Z,28.97
2022-08-03T09:23:59.140Z,29.12
2022-08-03T09:25:59.835Z,29.09
2022-08-03T09:28:57.939Z,29.27
2022-08-03T09:31:49.342Z,29.41
2022-08-03T09:34:18.212Z,29.22
2022-08-03T09:36:54.128Z,29.40
2022-08-03T09:39:40.640Z,29.39
2022-08-03T09:42:23.721Z,29.43
2022-08-03T09:44:53.593Z,29.41
2022-08-03T09:47:45.139Z,29.52
2022-08-03T09:50:12.885Z,29.54
2022-08-03T09:52:49.953Z,29.64
2022-08-03T09:56:33.621Z,29.51
2022-08-03T09:58:11.822Z,29.60
2022-08-03T10:01:07.484Z,29.74
2022-08-03T10:04:03.867Z,29.97
2022-08-03T10:06:32.335Z,30.21
2022-08-03T10:09:16.256Z,30.29
2022-08-03T10:11:48.678Z,30.26
2022-08-03T10:14:21.274Z,30.31
2022-08-03T10:16:50.066Z,30.38
2022-08-03T10:19:17.723Z,30.42
2022-08-03T10:22:01.178Z,30.27
2022-08-03T10:24:30.973Z,30.25
2022-08-03T10:27:04.250Z,30.37
2022-08-03T10:29:42.231Z,30.47
2022-08-03T10:32:58.981Z,30.52
2022-08-03T10:35:27.260Z,30.62
2022-08-03T10:38:09.304Z,30.81
2022-08-03T10:40:58.649Z,30.87
2022-08-03T10:43:41.150Z,31.03
2022-08-03T10:46:08.635Z,31.10
2022-08-03T10:48:37.960Z,31.23
2022-08-03T10:51:06.755Z,31.43
2022-08-03T10:53:54.170Z,31.35
2022-08-03T10:56:52.756Z,31.31
2022-08-03T10:59:46.226Z,31.34
2022-08-03T11:02:15.478Z,31.30
2022-08-03T11:04:44.841Z,31.55
2022-08-03T11:07:22.923Z,31.53
2022-08-03T11:09:59.518Z,31.62
2022-08-03T11:12:33.921Z,31.50
2022-08-03T11:15:06.346Z,31.61
2022-08-03T11:17:46.397Z,31.77
2022-08-03T11:20:52.417Z,31.91
2022-08-03T11:24:04.942Z,31.81
2022-08-03T11:26:34.520Z,31.91
2022-08-03T11:29:31.080Z,31.95
2022-08-03T11:31:58.141Z,32.08
2022-08-03T11:34:25.701Z,32.05
2022-08-03T11:37:27.509Z,32.24
2022-08-03T11:39:58.301Z,32.06
2022-08-03T11:42:25.535Z,32.03
2022-08-03T11:44:57.880Z,32.20
2022-08-03T11:47:27.619Z,32.42
2022-08-03T11:50:02.232Z,32.38
2022-08-03T11:52:40.986Z,32.58
2022-08-03T11:55:16.531Z,32.57
2022-08-03T11:59:17.241Z,32.71
2022-08-03T12:00:33.623Z,32.82
2022-08-03T12:03:07.210Z,32.56
2022-08-03T12:05:47.951Z,32.61
2022-08-03T12:08:41.283Z,32.49
2022-08-03T12:11:15.132Z,32.44
2022-08-03T12:14:49.770Z,32.60
2022-08-03T12:16:36.011Z,32.82
2022-08-03T12:19:07.016Z,33.05
2022-08-03T12:21:35.364Z,32.97
2022-08-03T12:24:10.028Z,33.17
2022-08-03T12:26:59.362Z,33.34
2022-08-03T12:29:26.819Z,33.46
2022-08-03T12:31:53.756Z,33.35
2022-08-03T12:34:20.928Z,33.48
2022-08-03T12:36:57.006Z,33.39
2022-08-03T12:39:27.861Z,33.46
2022-08-03T12:41:56.570Z,33.25
2022-08-03T12:44:32.857Z,33.16
2022-08-03T12:47:03.521Z,33.29
2022-08-03T12:49:54.550Z,33.31
2022-08-03T12:52:23.139Z,33.32
2022-08-03T12:54:59.993Z,33.37
2022-08-03T12:57:41.509Z,33.50
2022-08-03T13:00:28.730Z,33.52
2022-08-03T13:05:55.182Z,33.38
2022-08-03T13:08:25.437Z,33.22
2022-08-03T13:10:54.953Z,33.60
2022-08-03T13:13:40.932Z,34.02
2022-08-03T13:16:07.784Z,34.11
2022-08-03T13:18:34.537Z,34.39
2022-08-03T13:21:02.355Z,34.56
2022-08-03T13:23:29.172Z,35.36
2022-08-03T13:25:58.430Z,36.61
2022-08-03T13:28:25.157Z,38.21
2022-08-03T13:30:55.129Z,39.91
2022-08-03T13:33:22.017Z,40.80
2022-08-03T13:35:50.877Z,41.21
2022-08-03T13:38:21.630Z,39.92
2022-08-03T13:40:53.760Z,38.94
2022-08-03T13:43:22.054Z,38.07
2022-08-03T13:45:52.404Z,37.18
2022-08-03T13:48:36.183Z,36.71
2022-08-03T13:51:11.580Z,36.24
2022-08-03T13:53:50.590Z,36.23
2022-08-03T13:56:17.354Z,36.31
2022-08-03T13:58:44.455Z,36.37
2022-08-03T14:01:11.508Z,36.77
2022-08-03T14:03:39.402Z,37.63
2022-08-03T14:06:06.251Z,38.30
2022-08-03T14:08:33.212Z,38.91
2022-08-03T14:10:59.883Z,40.05
2022-08-03T14:13:26.655Z,40.79
2022-08-03T14:15:53.483Z,41.33
2022-08-03T14:18:29.093Z,41.55
2022-08-03T14:21:05.970Z,41.16
2022-08-03T14:23:34.490Z,40.81
2022-08-03T14:26:01.155Z,39.73
2022-08-03T14:28:28.665Z,39.37
2022-08-03T14:30:56.379Z,38.62
2022-08-03T14:33:23.712Z,37.93
2022-08-03T14:35:55.112Z,38.86
2022-08-03T14:38:22.709Z,39.16
2022-08-03T14:40:50.173Z,39.78
2022-08-03T14:43:18.099Z,39.99
2022-08-03T14:45:44.991Z,40.04
2022-08-03T14:50:10.490Z,39.60
2022-08-03T14:50:59.240Z,40.02
2022-08-03T14:53:25.923Z,39.67
2022-08-03T14:55:53.355Z,38.97
2022-08-03T14:58:25.356Z,38.56
2022-08-03T15:00:54.352Z,39.15
2022-08-03T15:03:24.710Z,39.75
2022-08-03T15:05:56.813Z,38.77
2022-08-03T15:08:26.037Z,38.04
2022-08-03T15:10:54.738Z,37.22
2022-08-03T15:13:22.363Z,36.67
2022-08-03T15:15:50.129Z,36.55
2022-08-03T15:18:16.891Z,35.97
2022-08-03T15:20:45.901Z,36.06
2022-08-03T15:23:15.516Z,36.75
2022-08-03T15:26:29.636Z,36.56
2022-08-03T15:28:32.307Z,35.86
2022-08-03T15:31:01.925Z,35.57
2022-08-03T15:33:30.434Z,35.38
2022-08-03T15:35:57.416Z,35.14
2022-08-03T15:38:26.250Z,35.03
2022-08-03T15:40:56.928Z,34.96
2022-08-03T15:43:24.664Z,34.80
2022-08-03T15:46:26.489Z,34.67
2022-08-03T15:48:39.444Z,34.58
2022-08-03T15:51:08.320Z,34.54
2022-08-03T15:53:35.525Z,34.49
2022-08-03T15:56:09.401Z,34.39
2022-08-03T15:59:09.293Z,34.38
2022-08-03T16:01:26.774Z,34.37
2022-08-03T16:03:53.564Z,34.38
2022-08-03T16:06:29.811Z,34.32
2022-08-03T16:09:23.775Z,34.59
2022-08-03T16:11:56.814Z,34.62
2022-08-03T16:14:34.467Z,34.81
2022-08-03T16:17:03.100Z,34.66
2022-08-03T16:19:29.783Z,34.50
2022-08-03T16:21:56.499Z,34.48
2022-08-03T16:24:28.125Z,34.45
2022-08-03T16:26:56.331Z,34.51
2022-08-03T16:29:23.594Z,34.67
2022-08-03T16:31:52.159Z,34.91
2022-08-03T16:34:19.621Z,35.39
2022-08-03T16:36:46.297Z,35.73
2022-08-03T16:39:15.525Z,36.49
2022-08-03T16:41:53.976Z,37.37
2022-08-03T16:44:30.906Z,38.14
2022-08-03T16:46:59.682Z,38.68
2022-08-03T16:49:54.429Z,38.31
2022-08-03T16:52:13.993Z,37.38
2022-08-03T16:54:43.970Z,36.86
2022-08-03T16:57:29.780Z,36.38
2022-08-03T17:00:05.961Z,35.82
2022-08-03T17:02:32.887Z,35.74
2022-08-03T17:04:59.775Z,35.73
2022-08-03T17:07:26.502Z,35.47
2022-08-03T17:10:00.143Z,35.43
2022-08-03T17:12:33.625Z,35.37
2022-08-03T17:15:01.954Z,35.40
2022-08-03T17:17:37.562Z,35.52
2022-08-03T17:20:15.720Z,35.71
2022-08-03T17:23:14.524Z,35.80
2022-08-03T17:26:02.194Z,36.02
2022-08-03T17:28:52.032Z,36.23
2022-08-03T17:31:31.537Z,36.04
2022-08-03T17:34:04.549Z,35.70
2022-08-03T17:37:02.076Z,35.22
2022-08-03T17:39:41.846Z,34.68
2022-08-03T17:42:31.631Z,34.29
2022-08-03T17:45:03.420Z,34.06
2022-08-03T17:47:42.248Z,33.55
2022-08-03T17:50:28.011Z,33.21
2022-08-03T17:53:14.297Z,33.05
2022-08-03T17:55:57.652Z,32.96
2022-08-03T17:58:52.769Z,32.76
2022-08-03T18:02:03.401Z,32.52
2022-08-03T18:04:55.206Z,32.44
2022-08-03T18:07:40.920Z,32.29
2022-08-03T18:10:11.218Z,32.02
2022-08-03T18:12:57.916Z,32.01
2022-08-03T18:15:39.315Z,31.76
2022-08-03T18:18:11.012Z,31.61
2022-08-03T18:20:42.072Z,31.54
2022-08-03T18:26:10.727Z,31.34
2022-08-03T18:28:39.793Z,31.20
2022-08-03T18:31:12.725Z,31.04
2022-08-03T18:34:16.593Z,30.95
2022-08-03T18:36:49.612Z,30.91
2022-08-03T18:39:19.718Z,30.75
2022-08-03T18:41:46.909Z,30.62
2022-08-03T18:44:37.435Z,30.46
2022-08-03T18:47:50.640Z,30.28
2022-08-03T18:50:35.600Z,30.31
2022-08-03T18:54:03.192Z,30.18
2022-08-03T18:56:47.993Z,30.07
2022-08-03T18:59:53.522Z,30.08
2022-08-03T19:02:39.751Z,29.99
2022-08-03T19:05:10.906Z,29.85
2022-08-03T19:07:45.673Z,29.72
2022-08-03T19:10:32.215Z,29.66
2022-08-03T19:13:36.409Z,29.56
2022-08-03T19:16:08.585Z,29.59
2022-08-03T19:18:38.807Z,29.56
2022-08-03T19:21:12.728Z,29.45
2022-08-03T19:23:46.193Z,29.36
2022-08-03T19:26:29.978Z,29.47
2022-08-03T19:28:59.591Z,29.42
2022-08-03T19:31:30.976Z,29.39
2022-08-03T19:34:03.831Z,29.18
2022-08-03T19:36:40.500Z,29.04
2022-08-03T19:39:12.620Z,28.95
2022-08-03T19:41:42.010Z,28.86
2022-08-03T19:44:22.142Z,28.85
2022-08-03T19:46:55.305Z,28.65
2022-08-03T19:49:57.699Z,28.48
2022-08-03T19:52:24.185Z,28.28
2022-08-03T19:54:56.758Z,28.16
2022-08-03T19:57:27.283Z,28.01
2022-08-03T19:59:56.498Z,27.99
2022-08-03T20:02:26.015Z,28.12
2022-08-03T20:04:57.047Z,28.17
2022-08-03T20:07:26.258Z,28.10
2022-08-03T20:09:56.707Z,28.17
2022-08-03T20:12:28.573Z,28.11
2022-08-03T20:14:57.825Z,28.16
2022-08-03T20:17:53.984Z,28.06
2022-08-03T20:20:18.550Z,27.98
2022-08-03T20:22:52.640Z,28.00
2022-08-03T20:25:38.089Z,27.99
2022-08-03T20:28:29.026Z,27.99
2022-08-03T20:30:57.102Z,27.99
2022-08-03T20:33:27.866Z,27.76
2022-08-03T20:36:11.588Z,27.69
2022-08-03T20:38:47.112Z,27.46
2022-08-03T20:41:18.580Z,27.33
2022-08-03T20:43:49.364Z,27.29
2022-08-03T20:46:29.517Z,27.27
2022-08-03T20:49:08.717Z,27.20
2022-08-03T20:51:50.279Z,27.31
2022-08-03T20:54:30.992Z,27.31
2022-08-03T20:57:03.904Z,27.23
2022-08-03T20:59:47.136Z,27.21
2022-08-03T21:02:19.818Z,27.27
2022-08-03T21:05:03.331Z,27.27
2022-08-03T21:08:05.813Z,27.06
2022-08-03T21:10:42.051Z,26.98
2022-08-03T21:13:04.918Z,31.43
2022-08-03T21:13:39.553Z,26.98
2022-08-03T21:16:15.327Z,26.88
2022-08-03T21:18:50.757Z,26.68
2022-08-03T21:21:24.509Z,26.62
2022-08-03T21:23:55.574Z,26.60
2022-08-03T21:26:26.121Z,26.47
2022-08-03T21:28:55.954Z,26.38
2022-08-03T21:31:26.747Z,26.20
2022-08-03T21:34:04.908Z,26.27
2022-08-03T21:36:36.157Z,26.12
2022-08-03T21:39:10.330Z,25.96
2022-08-03T21:41:39.957Z,26.05
2022-08-03T21:44:09.754Z,26.00
2022-08-03T21:46:42.001Z,25.97
2022-08-03T21:50:04.979Z,25.84
2022-08-03T21:52:07.020Z,25.79
2022-08-03T21:54:46.402Z,25.71
2022-08-03T21:57:25.793Z,25.87
2022-08-03T22:00:03.955Z,25.75
2022-08-03T22:02:32.342Z,25.86
2022-08-03T22:05:00.011Z,25.89
2022-08-03T22:07:31.721Z,25.85
2022-08-03T22:10:07.220Z,25.76
2022-08-03T22:12:36.422Z,25.83
2022-08-03T22:15:09.613Z,25.79
2022-08-03T22:17:54.983Z,25.82
2022-08-03T22:20:28.869Z,25.91
2022-08-03T22:23:04.587Z,25.80
2022-08-03T22:25:37.598Z,25.89
2022-08-03T22:28:16.305Z,25.78
2022-08-03T22:30:49.170Z,25.67
2022-08-03T22:33:19.172Z,25.71
2022-08-03T22:35:57.477Z,25.63
2022-08-03T22:38:26.592Z,25.48
2022-08-03T22:40:58.421Z,25.56
2022-08-03T22:43:28.005Z,25.53
2022-08-03T22:46:09.776Z,25.38
2022-08-03T22:48:41.024Z,25.42
2022-08-03T22:51:08.826Z,25.39
2022-08-03T22:53:39.979Z,25.30
2022-08-03T22:56:10.567Z,25.15
2022-08-03T22:58:37.207Z,25.23
2022-08-03T23:01:11.227Z,25.10
2022-08-03T23:03:59.902Z,25.04
2022-08-03T23:06:35.711Z,25.00
2022-08-03T23:09:13.944Z,24.93
2022-08-03T23:12:03.180Z,24.86
2022-08-03T23:14:37.782Z,24.85
2022-08-03T23:17:08.172Z,24.84
2022-08-03T23:19:44.803Z,24.85
2022-08-03T23:22:28.623Z,24.80
2022-08-03T23:25:01.462Z,24.77
2022-08-03T23:27:30.757Z,24.77
2022-08-03T23:30:03.951Z,24.68
2022-08-03T23:32:36.206Z,24.68
2022-08-03T23:35:28.646Z,24.67
2022-08-03T23:38:22.114Z,24.59
2022-08-03T23:41:01.857Z,24.53
2022-08-03T23:43:52.191Z,24.49
2022-08-03T23:46:22.528Z,24.45
2022-08-03T23:48:56.641Z,24.40
2022-08-03T23:51:41.227Z,24.45
2022-08-03T23:54:36.404Z,24.46
2022-08-03T23:57:42.708Z,24.35
